sensor_id;sensor_type;location;lat;lon;timestamp;P1;durP1;ratioP1;P2;durP2;ratioP2
6679;SDS011;3376;42.664;23.346;2023-06-14T00:02:14;9.13;;;8.53;;
6679;SDS011;3376;42.664;23.346;2023-06-14T00:04:41;8.77;;;8.23;;
6679;SDS011;3376;42.664;23.346;2023-06-14T00:07:08;9.30;;;8.70;;
6679;SDS011;3376;42.664;23.346;2023-06-14T00:09:35;9.93;;;8.47;;
6679;SDS011;3376;42.664;23.346;2023-06-14T00:12:02;9.70;;;8.10;;
6679;SDS011;3376;42.664;23.346;2023-06-14T00:14:30;9.00;;;8.17;;
6679;SDS011;3376;42.664;23.346;2023-06-14T00:16:57;6.80;;;6.50;;
6679;SDS011;3376;42.664;23.346;2023-06-14T00:19:24;7.60;;;7.10;;
6679;SDS011;3376;42.664;23.346;2023-06-14T00:21:50;7.70;;;7.23;;
6679;SDS011;3376;42.664;23.346;2023-06-14T00:24:18;16.00;;;14.40;;
6679;SDS011;3376;42.664;23.346;2023-06-14T00:26:45;11.90;;;10.70;;
6679;SDS011;3376;42.664;23.346;2023-06-14T00:29:12;8.83;;;7.97;;
6679;SDS011;3376;42.664;23.346;2023-06-14T00:31:40;6.90;;;6.60;;
6679;SDS011;3376;42.664;23.346;2023-06-14T00:34:07;7.60;;;7.00;;
6679;SDS011;3376;42.664;23.346;2023-06-14T00:36:34;6.63;;;6.33;;
6679;SDS011;3376;42.664;23.346;2023-06-14T00:39:01;6.77;;;6.20;;
6679;SDS011;3376;42.664;23.346;2023-06-14T00:41:28;6.80;;;6.27;;
6679;SDS011;3376;42.664;23.346;2023-06-14T00:43:55;7.67;;;6.90;;
6679;SDS011;3376;42.664;23.346;2023-06-14T00:46:22;6.97;;;6.47;;
6679;SDS011;3376;42.664;23.346;2023-06-14T00:48:50;7.67;;;7.20;;
6679;SDS011;3376;42.664;23.346;2023-06-14T00:51:18;7.20;;;6.77;;
6679;SDS011;3376;42.664;23.346;2023-06-14T00:53:45;6.00;;;5.80;;
6679;SDS011;3376;42.664;23.346;2023-06-14T00:56:13;6.37;;;5.77;;
6679;SDS011;3376;42.664;23.346;2023-06-14T00:58:40;6.23;;;5.80;;
6679;SDS011;3376;42.664;23.346;2023-06-14T01:01:07;6.60;;;6.10;;
6679;SDS011;3376;42.664;23.346;2023-06-14T01:03:34;6.57;;;6.10;;
6679;SDS011;3376;42.664;23.346;2023-06-14T01:06:05;6.97;;;6.67;;
6679;SDS011;3376;42.664;23.346;2023-06-14T01:08:56;7.07;;;6.53;;
6679;SDS011;3376;42.664;23.346;2023-06-14T01:11:31;7.20;;;6.60;;
6679;SDS011;3376;42.664;23.346;2023-06-14T01:14:03;5.70;;;5.43;;
6679;SDS011;3376;42.664;23.346;2023-06-14T01:16:31;6.73;;;6.17;;
6679;SDS011;3376;42.664;23.346;2023-06-14T01:19:01;6.80;;;6.30;;
6679;SDS011;3376;42.664;23.346;2023-06-14T01:21:29;5.93;;;5.60;;
6679;SDS011;3376;42.664;23.346;2023-06-14T01:24:00;6.87;;;6.47;;
6679;SDS011;3376;42.664;23.346;2023-06-14T01:26:28;6.00;;;5.60;;
6679;SDS011;3376;42.664;23.346;2023-06-14T01:28:55;7.07;;;6.57;;
6679;SDS011;3376;42.664;23.346;2023-06-14T01:31:23;6.60;;;6.20;;
6679;SDS011;3376;42.664;23.346;2023-06-14T01:33:52;6.53;;;6.23;;
6679;SDS011;3376;42.664;23.346;2023-06-14T01:36:19;5.77;;;5.37;;
6679;SDS011;3376;42.664;23.346;2023-06-14T01:38:47;9.27;;;6.53;;
6679;SDS011;3376;42.664;23.346;2023-06-14T01:41:17;5.60;;;5.10;;
6679;SDS011;3376;42.664;23.346;2023-06-14T01:43:46;5.90;;;5.50;;
6679;SDS011;3376;42.664;23.346;2023-06-14T01:46:15;5.23;;;5.03;;
6679;SDS011;3376;42.664;23.346;2023-06-14T01:48:42;5.33;;;5.13;;
6679;SDS011;3376;42.664;23.346;2023-06-14T01:51:09;5.30;;;5.00;;
6679;SDS011;3376;42.664;23.346;2023-06-14T01:53:36;5.87;;;5.67;;
6679;SDS011;3376;42.664;23.346;2023-06-14T01:56:03;5.30;;;4.97;;
6679;SDS011;3376;42.664;23.346;2023-06-14T01:58:31;5.93;;;5.53;;
6679;SDS011;3376;42.664;23.346;2023-06-14T02:00:58;5.77;;;5.47;;
6679;SDS011;3376;42.664;23.346;2023-06-14T02:03:25;5.73;;;5.40;;
6679;SDS011;3376;42.664;23.346;2023-06-14T02:05:52;5.83;;;5.60;;
6679;SDS011;3376;42.664;23.346;2023-06-14T02:08:20;5.20;;;4.97;;
6679;SDS011;3376;42.664;23.346;2023-06-14T02:10:47;6.13;;;5.77;;
6679;SDS011;3376;42.664;23.346;2023-06-14T02:13:14;5.67;;;5.27;;
6679;SDS011;3376;42.664;23.346;2023-06-14T02:15:42;5.07;;;4.83;;
6679;SDS011;3376;42.664;23.346;2023-06-14T02:18:10;5.77;;;5.27;;
6679;SDS011;3376;42.664;23.346;2023-06-14T02:20:37;8.63;;;5.37;;
6679;SDS011;3376;42.664;23.346;2023-06-14T02:23:04;6.47;;;5.43;;
6679;SDS011;3376;42.664;23.346;2023-06-14T02:25:32;5.73;;;5.23;;
6679;SDS011;3376;42.664;23.346;2023-06-14T02:27:59;6.30;;;5.03;;
6679;SDS011;3376;42.664;23.346;2023-06-14T02:30:26;6.63;;;5.00;;
6679;SDS011;3376;42.664;23.346;2023-06-14T02:32:54;4.90;;;4.60;;
6679;SDS011;3376;42.664;23.346;2023-06-14T02:35:21;6.20;;;5.80;;
6679;SDS011;3376;42.664;23.346;2023-06-14T02:37:51;5.07;;;4.77;;
6679;SDS011;3376;42.664;23.346;2023-06-14T02:40:18;5.40;;;5.07;;
6679;SDS011;3376;42.664;23.346;2023-06-14T02:42:45;5.23;;;5.03;;
6679;SDS011;3376;42.664;23.346;2023-06-14T02:45:11;5.90;;;5.33;;
6679;SDS011;3376;42.664;23.346;2023-06-14T02:47:38;6.00;;;5.47;;
6679;SDS011;3376;42.664;23.346;2023-06-14T02:50:07;5.40;;;5.00;;
6679;SDS011;3376;42.664;23.346;2023-06-14T02:52:34;5.63;;;5.33;;
6679;SDS011;3376;42.664;23.346;2023-06-14T02:55:02;5.13;;;4.73;;
6679;SDS011;3376;42.664;23.346;2023-06-14T02:57:28;5.43;;;5.13;;
6679;SDS011;3376;42.664;23.346;2023-06-14T02:59:55;5.77;;;5.43;;
6679;SDS011;3376;42.664;23.346;2023-06-14T03:02:22;5.50;;;5.20;;
6679;SDS011;3376;42.664;23.346;2023-06-14T03:04:49;5.67;;;5.37;;
6679;SDS011;3376;42.664;23.346;2023-06-14T03:07:17;5.63;;;5.33;;
6679;SDS011;3376;42.664;23.346;2023-06-14T03:09:48;15.73;;;5.37;;
6679;SDS011;3376;42.664;23.346;2023-06-14T03:12:15;5.70;;;5.30;;
6679;SDS011;3376;42.664;23.346;2023-06-14T03:14:42;5.10;;;4.80;;
6679;SDS011;3376;42.664;23.346;2023-06-14T03:17:10;6.27;;;5.70;;
6679;SDS011;3376;42.664;23.346;2023-06-14T03:19:37;6.93;;;6.03;;
6679;SDS011;3376;42.664;23.346;2023-06-14T03:22:06;5.33;;;5.10;;
6679;SDS011;3376;42.664;23.346;2023-06-14T03:24:34;5.93;;;5.53;;
6679;SDS011;3376;42.664;23.346;2023-06-14T03:27:01;5.93;;;5.67;;
6679;SDS011;3376;42.664;23.346;2023-06-14T03:29:28;5.47;;;5.27;;
6679;SDS011;3376;42.664;23.346;2023-06-14T03:31:57;6.33;;;5.83;;
6679;SDS011;3376;42.664;23.346;2023-06-14T03:34:25;5.77;;;5.30;;
6679;SDS011;3376;42.664;23.346;2023-06-14T03:36:52;6.53;;;6.03;;
6679;SDS011;3376;42.664;23.346;2023-06-14T03:39:19;5.00;;;4.63;;
6679;SDS011;3376;42.664;23.346;2023-06-14T03:41:48;6.00;;;5.70;;
6679;SDS011;3376;42.664;23.346;2023-06-14T03:44:15;6.23;;;5.73;;
6679;SDS011;3376;42.664;23.346;2023-06-14T03:46:43;5.57;;;5.10;;
6679;SDS011;3376;42.664;23.346;2023-06-14T03:49:10;5.63;;;5.30;;
6679;SDS011;3376;42.664;23.346;2023-06-14T03:51:37;5.43;;;5.13;;
6679;SDS011;3376;42.664;23.346;2023-06-14T03:54:04;5.53;;;5.33;;
6679;SDS011;3376;42.664;23.346;2023-06-14T03:56:32;6.00;;;5.70;;
6679;SDS011;3376;42.664;23.346;2023-06-14T03:59:00;7.53;;;6.80;;
6679;SDS011;3376;42.664;23.346;2023-06-14T04:01:27;6.50;;;6.07;;
6679;SDS011;3376;42.664;23.346;2023-06-14T04:03:55;7.10;;;6.43;;
6679;SDS011;3376;42.664;23.346;2023-06-14T04:06:23;5.50;;;5.13;;
6679;SDS011;3376;42.664;23.346;2023-06-14T04:08:57;6.07;;;5.63;;
6679;SDS011;3376;42.664;23.346;2023-06-14T04:11:27;6.03;;;5.83;;
6679;SDS011;3376;42.664;23.346;2023-06-14T04:13:54;5.50;;;5.07;;
6679;SDS011;3376;42.664;23.346;2023-06-14T04:16:22;6.80;;;6.20;;
6679;SDS011;3376;42.664;23.346;2023-06-14T04:18:49;6.27;;;5.77;;
6679;SDS011;3376;42.664;23.346;2023-06-14T04:21:17;5.57;;;5.30;;
6679;SDS011;3376;42.664;23.346;2023-06-14T04:23:44;5.83;;;5.43;;
6679;SDS011;3376;42.664;23.346;2023-06-14T04:26:11;6.20;;;5.70;;
6679;SDS011;3376;42.664;23.346;2023-06-14T04:28:38;6.50;;;6.13;;
6679;SDS011;3376;42.664;23.346;2023-06-14T04:31:06;6.30;;;6.00;;
6679;SDS011;3376;42.664;23.346;2023-06-14T04:33:34;7.90;;;6.87;;
6679;SDS011;3376;42.664;23.346;2023-06-14T04:36:08;6.10;;;5.70;;
6679;SDS011;3376;42.664;23.346;2023-06-14T04:38:35;6.67;;;6.10;;
6679;SDS011;3376;42.664;23.346;2023-06-14T04:41:02;6.57;;;5.80;;
6679;SDS011;3376;42.664;23.346;2023-06-14T04:43:28;7.17;;;6.40;;
6679;SDS011;3376;42.664;23.346;2023-06-14T04:45:56;6.53;;;6.10;;
6679;SDS011;3376;42.664;23.346;2023-06-14T04:48:23;6.00;;;5.80;;
6679;SDS011;3376;42.664;23.346;2023-06-14T04:50:51;9.17;;;7.20;;
6679;SDS011;3376;42.664;23.346;2023-06-14T04:53:19;7.90;;;7.50;;
6679;SDS011;3376;42.664;23.346;2023-06-14T04:55:48;8.80;;;8.20;;
6679;SDS011;3376;42.664;23.346;2023-06-14T04:58:15;8.10;;;7.53;;
6679;SDS011;3376;42.664;23.346;2023-06-14T05:00:42;8.43;;;8.03;;
6679;SDS011;3376;42.664;23.346;2023-06-14T05:03:09;8.33;;;7.77;;
6679;SDS011;3376;42.664;23.346;2023-06-14T05:05:38;7.83;;;7.33;;
6679;SDS011;3376;42.664;23.346;2023-06-14T05:08:08;8.47;;;7.00;;
6679;SDS011;3376;42.664;23.346;2023-06-14T05:10:35;7.40;;;6.87;;
6679;SDS011;3376;42.664;23.346;2023-06-14T05:13:02;8.43;;;7.83;;
6679;SDS011;3376;42.664;23.346;2023-06-14T05:15:29;7.57;;;7.27;;
6679;SDS011;3376;42.664;23.346;2023-06-14T05:17:56;7.97;;;7.57;;
6679;SDS011;3376;42.664;23.346;2023-06-14T05:20:23;9.33;;;8.27;;
6679;SDS011;3376;42.664;23.346;2023-06-14T05:22:51;10.20;;;9.70;;
6679;SDS011;3376;42.664;23.346;2023-06-14T05:25:20;11.57;;;10.97;;
6679;SDS011;3376;42.664;23.346;2023-06-14T05:27:47;9.97;;;9.57;;
6679;SDS011;3376;42.664;23.346;2023-06-14T05:30:14;10.90;;;10.30;;
6679;SDS011;3376;42.664;23.346;2023-06-14T05:32:42;9.97;;;9.47;;
6679;SDS011;3376;42.664;23.346;2023-06-14T05:35:08;10.83;;;10.03;;
6679;SDS011;3376;42.664;23.346;2023-06-14T05:37:35;10.70;;;10.07;;
6679;SDS011;3376;42.664;23.346;2023-06-14T05:40:02;10.67;;;9.90;;
6679;SDS011;3376;42.664;23.346;2023-06-14T05:42:32;11.50;;;10.90;;
6679;SDS011;3376;42.664;23.346;2023-06-14T05:44:59;11.93;;;11.13;;
6679;SDS011;3376;42.664;23.346;2023-06-14T05:47:26;11.23;;;10.63;;
6679;SDS011;3376;42.664;23.346;2023-06-14T05:49:53;11.47;;;10.70;;
6679;SDS011;3376;42.664;23.346;2023-06-14T05:52:21;11.50;;;10.73;;
6679;SDS011;3376;42.664;23.346;2023-06-14T05:54:48;11.17;;;10.50;;
6679;SDS011;3376;42.664;23.346;2023-06-14T05:57:15;10.53;;;10.00;;
6679;SDS011;3376;42.664;23.346;2023-06-14T05:59:43;12.00;;;11.20;;
6679;SDS011;3376;42.664;23.346;2023-06-14T06:02:10;11.10;;;10.13;;
6679;SDS011;3376;42.664;23.346;2023-06-14T06:04:37;10.57;;;9.97;;
6679;SDS011;3376;42.664;23.346;2023-06-14T06:07:03;11.37;;;10.67;;
6679;SDS011;3376;42.664;23.346;2023-06-14T06:09:32;11.20;;;10.40;;
6679;SDS011;3376;42.664;23.346;2023-06-14T06:12:00;10.80;;;10.10;;
6679;SDS011;3376;42.664;23.346;2023-06-14T06:14:27;13.30;;;11.50;;
6679;SDS011;3376;42.664;23.346;2023-06-14T06:16:55;11.60;;;10.47;;
6679;SDS011;3376;42.664;23.346;2023-06-14T06:19:22;11.33;;;10.67;;
6679;SDS011;3376;42.664;23.346;2023-06-14T06:21:49;9.30;;;8.33;;
6679;SDS011;3376;42.664;23.346;2023-06-14T06:24:16;11.67;;;11.07;;
6679;SDS011;3376;42.664;23.346;2023-06-14T06:26:42;18.63;;;10.37;;
6679;SDS011;3376;42.664;23.346;2023-06-14T06:29:09;12.70;;;11.80;;
6679;SDS011;3376;42.664;23.346;2023-06-14T06:31:36;11.30;;;10.33;;
6679;SDS011;3376;42.664;23.346;2023-06-14T06:34:04;14.60;;;11.07;;
6679;SDS011;3376;42.664;23.346;2023-06-14T06:36:31;15.80;;;10.43;;
6679;SDS011;3376;42.664;23.346;2023-06-14T06:38:58;9.53;;;8.93;;
6679;SDS011;3376;42.664;23.346;2023-06-14T06:41:25;10.23;;;9.37;;
6679;SDS011;3376;42.664;23.346;2023-06-14T06:43:52;10.23;;;9.57;;
6679;SDS011;3376;42.664;23.346;2023-06-14T06:46:18;11.73;;;10.47;;
6679;SDS011;3376;42.664;23.346;2023-06-14T06:48:45;11.83;;;10.90;;
6679;SDS011;3376;42.664;23.346;2023-06-14T06:51:13;12.47;;;11.37;;
6679;SDS011;3376;42.664;23.346;2023-06-14T06:53:41;11.40;;;10.80;;
6679;SDS011;3376;42.664;23.346;2023-06-14T06:56:09;12.53;;;11.73;;
6679;SDS011;3376;42.664;23.346;2023-06-14T06:58:35;12.43;;;11.57;;
6679;SDS011;3376;42.664;23.346;2023-06-14T07:01:02;13.60;;;11.90;;
6679;SDS011;3376;42.664;23.346;2023-06-14T07:03:29;12.37;;;11.43;;
6679;SDS011;3376;42.664;23.346;2023-06-14T07:05:56;14.70;;;13.33;;
6679;SDS011;3376;42.664;23.346;2023-06-14T07:08:24;14.00;;;13.17;;
6679;SDS011;3376;42.664;23.346;2023-06-14T07:10:52;20.50;;;14.03;;
6679;SDS011;3376;42.664;23.346;2023-06-14T07:13:18;14.30;;;13.07;;
6679;SDS011;3376;42.664;23.346;2023-06-14T07:15:46;16.37;;;14.77;;
6679;SDS011;3376;42.664;23.346;2023-06-14T07:18:14;14.23;;;13.27;;
6679;SDS011;3376;42.664;23.346;2023-06-14T07:20:42;13.67;;;12.63;;
6679;SDS011;3376;42.664;23.346;2023-06-14T07:23:08;14.00;;;13.00;;
6679;SDS011;3376;42.664;23.346;2023-06-14T07:25:37;13.10;;;12.23;;
6679;SDS011;3376;42.664;23.346;2023-06-14T07:28:04;14.33;;;12.73;;
6679;SDS011;3376;42.664;23.346;2023-06-14T07:30:30;14.93;;;13.70;;
6679;SDS011;3376;42.664;23.346;2023-06-14T07:32:57;14.00;;;12.97;;
6679;SDS011;3376;42.664;23.346;2023-06-14T07:35:24;14.27;;;12.97;;
6679;SDS011;3376;42.664;23.346;2023-06-14T07:37:51;15.63;;;14.33;;
6679;SDS011;3376;42.664;23.346;2023-06-14T07:40:18;14.87;;;13.93;;
6679;SDS011;3376;42.664;23.346;2023-06-14T07:42:46;14.73;;;13.40;;
6679;SDS011;3376;42.664;23.346;2023-06-14T07:45:14;14.07;;;13.10;;
6679;SDS011;3376;42.664;23.346;2023-06-14T07:47:41;14.50;;;13.60;;
6679;SDS011;3376;42.664;23.346;2023-06-14T07:50:08;12.87;;;12.20;;
6679;SDS011;3376;42.664;23.346;2023-06-14T07:52:36;13.30;;;12.53;;
6679;SDS011;3376;42.664;23.346;2023-06-14T07:55:03;14.07;;;12.50;;
6679;SDS011;3376;42.664;23.346;2023-06-14T07:57:31;10.90;;;10.23;;
6679;SDS011;3376;42.664;23.346;2023-06-14T07:59:59;11.00;;;10.20;;
6679;SDS011;3376;42.664;23.346;2023-06-14T08:02:26;11.30;;;10.77;;
6679;SDS011;3376;42.664;23.346;2023-06-14T08:04:53;12.52;;;11.45;;
6679;SDS011;3376;42.664;23.346;2023-06-14T08:07:20;11.68;;;10.82;;
6679;SDS011;3376;42.664;23.346;2023-06-14T08:09:46;10.50;;;10.00;;
6679;SDS011;3376;42.664;23.346;2023-06-14T08:12:13;10.77;;;9.93;;
6679;SDS011;3376;42.664;23.346;2023-06-14T08:14:41;11.00;;;10.30;;
6679;SDS011;3376;42.664;23.346;2023-06-14T08:17:10;12.37;;;11.47;;
6679;SDS011;3376;42.664;23.346;2023-06-14T08:19:37;10.75;;;10.25;;
6679;SDS011;3376;42.664;23.346;2023-06-14T08:22:04;10.90;;;10.20;;
6679;SDS011;3376;42.664;23.346;2023-06-14T08:24:31;11.27;;;10.63;;
6679;SDS011;3376;42.664;23.346;2023-06-14T08:26:58;12.38;;;11.52;;
6679;SDS011;3376;42.664;23.346;2023-06-14T08:29:26;12.20;;;11.23;;
6679;SDS011;3376;42.664;23.346;2023-06-14T08:31:56;12.82;;;11.63;;
6679;SDS011;3376;42.664;23.346;2023-06-14T08:34:24;13.23;;;12.30;;
6679;SDS011;3376;42.664;23.346;2023-06-14T08:36:51;13.10;;;12.20;;
6679;SDS011;3376;42.664;23.346;2023-06-14T08:39:17;12.80;;;11.70;;
6679;SDS011;3376;42.664;23.346;2023-06-14T08:41:46;10.85;;;10.15;;
6679;SDS011;3376;42.664;23.346;2023-06-14T08:44:13;12.40;;;11.57;;
6679;SDS011;3376;42.664;23.346;2023-06-14T08:46:42;12.02;;;11.25;;
6679;SDS011;3376;42.664;23.346;2023-06-14T08:49:10;11.60;;;10.90;;
6679;SDS011;3376;42.664;23.346;2023-06-14T08:51:39;11.57;;;10.75;;
6679;SDS011;3376;42.664;23.346;2023-06-14T08:54:06;12.00;;;10.88;;
6679;SDS011;3376;42.664;23.346;2023-06-14T08:56:34;11.25;;;10.57;;
6679;SDS011;3376;42.664;23.346;2023-06-14T08:59:06;11.93;;;11.25;;
6679;SDS011;3376;42.664;23.346;2023-06-14T09:01:36;10.75;;;10.10;;
6679;SDS011;3376;42.664;23.346;2023-06-14T09:04:03;12.27;;;11.30;;
6679;SDS011;3376;42.664;23.346;2023-06-14T09:06:31;9.75;;;9.15;;
6679;SDS011;3376;42.664;23.346;2023-06-14T09:08:59;11.48;;;10.48;;
6679;SDS011;3376;42.664;23.346;2023-06-14T09:11:26;11.43;;;10.73;;
6679;SDS011;3376;42.664;23.346;2023-06-14T09:13:53;10.55;;;9.65;;
6679;SDS011;3376;42.664;23.346;2023-06-14T09:16:19;11.52;;;9.35;;
6679;SDS011;3376;42.664;23.346;2023-06-14T09:18:46;10.63;;;9.82;;
6679;SDS011;3376;42.664;23.346;2023-06-14T09:21:14;11.45;;;10.75;;
6679;SDS011;3376;42.664;23.346;2023-06-14T09:23:42;12.07;;;11.38;;
6679;SDS011;3376;42.664;23.346;2023-06-14T09:26:13;10.77;;;10.02;;
6679;SDS011;3376;42.664;23.346;2023-06-14T09:28:41;11.30;;;10.35;;
6679;SDS011;3376;42.664;23.346;2023-06-14T09:31:10;11.65;;;10.95;;
6679;SDS011;3376;42.664;23.346;2023-06-14T09:33:37;9.40;;;8.90;;
6679;SDS011;3376;42.664;23.346;2023-06-14T09:36:04;10.77;;;10.27;;
6679;SDS011;3376;42.664;23.346;2023-06-14T09:38:37;10.55;;;9.90;;
6679;SDS011;3376;42.664;23.346;2023-06-14T09:41:07;10.98;;;10.18;;
6679;SDS011;3376;42.664;23.346;2023-06-14T09:43:35;11.60;;;10.68;;
6679;SDS011;3376;42.664;23.346;2023-06-14T09:46:03;11.90;;;11.23;;
6679;SDS011;3376;42.664;23.346;2023-06-14T09:48:32;12.05;;;11.27;;
6679;SDS011;3376;42.664;23.346;2023-06-14T09:50:59;13.50;;;12.77;;
6679;SDS011;3376;42.664;23.346;2023-06-14T09:53:29;12.15;;;11.40;;
6679;SDS011;3376;42.664;23.346;2023-06-14T09:55:57;13.55;;;12.65;;
6679;SDS011;3376;42.664;23.346;2023-06-14T09:58:26;12.25;;;11.63;;
6679;SDS011;3376;42.664;23.346;2023-06-14T10:00:56;11.55;;;10.90;;
6679;SDS011;3376;42.664;23.346;2023-06-14T10:03:25;10.73;;;9.90;;
6679;SDS011;3376;42.664;23.346;2023-06-14T10:05:55;12.60;;;11.50;;
6679;SDS011;3376;42.664;23.346;2023-06-14T10:08:27;13.00;;;11.70;;
6679;SDS011;3376;42.664;23.346;2023-06-14T10:10:58;12.05;;;11.23;;
6679;SDS011;3376;42.664;23.346;2023-06-14T10:13:25;10.95;;;10.20;;
6679;SDS011;3376;42.664;23.346;2023-06-14T10:15:57;10.82;;;10.23;;
6679;SDS011;3376;42.664;23.346;2023-06-14T10:18:32;10.88;;;9.93;;
6679;SDS011;3376;42.664;23.346;2023-06-14T10:21:08;11.57;;;11.02;;
6679;SDS011;3376;42.664;23.346;2023-06-14T10:23:43;12.57;;;11.57;;
6679;SDS011;3376;42.664;23.346;2023-06-14T10:26:17;11.98;;;11.05;;
6679;SDS011;3376;42.664;23.346;2023-06-14T10:28:55;11.82;;;11.20;;
6679;SDS011;3376;42.664;23.346;2023-06-14T10:31:27;11.10;;;10.15;;
6679;SDS011;3376;42.664;23.346;2023-06-14T10:34:07;11.52;;;10.55;;
6679;SDS011;3376;42.664;23.346;2023-06-14T10:36:34;9.75;;;9.15;;
6679;SDS011;3376;42.664;23.346;2023-06-14T10:39:04;10.57;;;9.93;;
6679;SDS011;3376;42.664;23.346;2023-06-14T10:41:34;10.43;;;9.73;;
6679;SDS011;3376;42.664;23.346;2023-06-14T10:46:59;11.85;;;10.77;;
6679;SDS011;3376;42.664;23.346;2023-06-14T10:52:16;10.40;;;9.52;;
6679;SDS011;3376;42.664;23.346;2023-06-14T10:57:44;11.85;;;10.70;;
6679;SDS011;3376;42.664;23.346;2023-06-14T11:00:16;12.00;;;11.10;;
6679;SDS011;3376;42.664;23.346;2023-06-14T11:05:56;9.60;;;9.10;;
6679;SDS011;3376;42.664;23.346;2023-06-14T11:11:29;9.95;;;9.25;;
6679;SDS011;3376;42.664;23.346;2023-06-14T11:13:58;10.23;;;9.27;;
6679;SDS011;3376;42.664;23.346;2023-06-14T11:16:26;10.10;;;9.52;;
6679;SDS011;3376;42.664;23.346;2023-06-14T11:18:55;8.50;;;8.10;;
6679;SDS011;3376;42.664;23.346;2023-06-14T11:21:23;10.43;;;9.68;;
6679;SDS011;3376;42.664;23.346;2023-06-14T11:23:56;11.63;;;10.55;;
6679;SDS011;3376;42.664;23.346;2023-06-14T11:26:26;9.50;;;9.10;;
6679;SDS011;3376;42.664;23.346;2023-06-14T11:28:56;9.65;;;8.95;;
6679;SDS011;3376;42.664;23.346;2023-06-14T11:31:24;9.43;;;8.82;;
6679;SDS011;3376;42.664;23.346;2023-06-14T11:33:53;9.73;;;9.13;;
6679;SDS011;3376;42.664;23.346;2023-06-14T11:36:21;8.95;;;8.55;;
6679;SDS011;3376;42.664;23.346;2023-06-14T11:38:48;11.23;;;10.23;;
6679;SDS011;3376;42.664;23.346;2023-06-14T11:41:16;9.25;;;8.48;;
6679;SDS011;3376;42.664;23.346;2023-06-14T11:43:43;8.68;;;8.15;;
6679;SDS011;3376;42.664;23.346;2023-06-14T11:46:12;8.38;;;8.07;;
6679;SDS011;3376;42.664;23.346;2023-06-14T11:48:40;8.80;;;8.10;;
6679;SDS011;3376;42.664;23.346;2023-06-14T11:51:08;8.13;;;7.47;;
6679;SDS011;3376;42.664;23.346;2023-06-14T11:53:37;9.50;;;8.80;;
6679;SDS011;3376;42.664;23.346;2023-06-14T11:56:05;7.50;;;7.15;;
6679;SDS011;3376;42.664;23.346;2023-06-14T11:58:32;8.23;;;7.55;;
6679;SDS011;3376;42.664;23.346;2023-06-14T12:00:59;7.28;;;6.90;;
6679;SDS011;3376;42.664;23.346;2023-06-14T12:03:27;9.07;;;8.00;;
6679;SDS011;3376;42.664;23.346;2023-06-14T12:06:06;8.02;;;7.55;;
6679;SDS011;3376;42.664;23.346;2023-06-14T12:08:34;7.72;;;7.05;;
6679;SDS011;3376;42.664;23.346;2023-06-14T12:11:06;8.20;;;7.78;;
6679;SDS011;3376;42.664;23.346;2023-06-14T12:13:34;7.03;;;6.63;;
6679;SDS011;3376;42.664;23.346;2023-06-14T12:16:04;6.63;;;6.05;;
6679;SDS011;3376;42.664;23.346;2023-06-14T12:18:31;7.80;;;6.65;;
6679;SDS011;3376;42.664;23.346;2023-06-14T12:20:59;8.10;;;7.47;;
6679;SDS011;3376;42.664;23.346;2023-06-14T12:23:38;10.48;;;9.00;;
6679;SDS011;3376;42.664;23.346;2023-06-14T12:26:06;11.82;;;7.70;;
6679;SDS011;3376;42.664;23.346;2023-06-14T12:28:33;7.32;;;6.72;;
6679;SDS011;3376;42.664;23.346;2023-06-14T12:31:00;10.13;;;9.02;;
6679;SDS011;3376;42.664;23.346;2023-06-14T12:33:27;7.43;;;6.85;;
6679;SDS011;3376;42.664;23.346;2023-06-14T12:35:54;7.45;;;6.95;;
6679;SDS011;3376;42.664;23.346;2023-06-14T12:38:22;11.95;;;6.55;;
6679;SDS011;3376;42.664;23.346;2023-06-14T12:40:49;6.20;;;5.85;;
6679;SDS011;3376;42.664;23.346;2023-06-14T12:43:17;6.93;;;6.55;;
6679;SDS011;3376;42.664;23.346;2023-06-14T12:45:44;6.25;;;5.78;;
6679;SDS011;3376;42.664;23.346;2023-06-14T12:48:11;6.78;;;6.47;;
6679;SDS011;3376;42.664;23.346;2023-06-14T12:50:38;6.72;;;6.22;;
6679;SDS011;3376;42.664;23.346;2023-06-14T12:53:04;6.47;;;6.07;;
6679;SDS011;3376;42.664;23.346;2023-06-14T12:55:31;6.93;;;6.53;;
6679;SDS011;3376;42.664;23.346;2023-06-14T12:57:58;6.28;;;5.97;;
6679;SDS011;3376;42.664;23.346;2023-06-14T13:00:26;7.05;;;6.50;;
6679;SDS011;3376;42.664;23.346;2023-06-14T13:02:55;6.25;;;5.93;;
6679;SDS011;3376;42.664;23.346;2023-06-14T13:05:22;7.05;;;6.47;;
6679;SDS011;3376;42.664;23.346;2023-06-14T13:07:49;6.55;;;6.20;;
6679;SDS011;3376;42.664;23.346;2023-06-14T13:10:16;6.30;;;5.93;;
6679;SDS011;3376;42.664;23.346;2023-06-14T13:12:43;6.57;;;6.18;;
6679;SDS011;3376;42.664;23.346;2023-06-14T13:15:10;7.87;;;7.47;;
6679;SDS011;3376;42.664;23.346;2023-06-14T13:17:38;7.33;;;6.73;;
6679;SDS011;3376;42.664;23.346;2023-06-14T13:20:06;7.67;;;7.13;;
6679;SDS011;3376;42.664;23.346;2023-06-14T13:22:33;7.07;;;6.67;;
6679;SDS011;3376;42.664;23.346;2023-06-14T13:25:00;7.20;;;6.90;;
6679;SDS011;3376;42.664;23.346;2023-06-14T13:27:27;7.23;;;6.57;;
6679;SDS011;3376;42.664;23.346;2023-06-14T13:29:54;8.57;;;8.10;;
6679;SDS011;3376;42.664;23.346;2023-06-14T13:32:21;8.60;;;7.90;;
6679;SDS011;3376;42.664;23.346;2023-06-14T13:34:49;8.13;;;7.63;;
6679;SDS011;3376;42.664;23.346;2023-06-14T13:37:17;7.30;;;6.80;;
6679;SDS011;3376;42.664;23.346;2023-06-14T13:39:44;8.23;;;7.73;;
6679;SDS011;3376;42.664;23.346;2023-06-14T13:42:11;7.50;;;7.00;;
6679;SDS011;3376;42.664;23.346;2023-06-14T13:44:38;7.63;;;7.30;;
6679;SDS011;3376;42.664;23.346;2023-06-14T13:47:05;7.20;;;6.80;;
6679;SDS011;3376;42.664;23.346;2023-06-14T13:49:32;7.57;;;7.03;;
6679;SDS011;3376;42.664;23.346;2023-06-14T13:52:01;7.90;;;7.40;;
6679;SDS011;3376;42.664;23.346;2023-06-14T13:54:29;7.70;;;7.00;;
6679;SDS011;3376;42.664;23.346;2023-06-14T13:56:55;8.40;;;7.77;;
6679;SDS011;3376;42.664;23.346;2023-06-14T13:59:22;8.00;;;7.70;;
6679;SDS011;3376;42.664;23.346;2023-06-14T14:01:49;7.13;;;6.83;;
6679;SDS011;3376;42.664;23.346;2023-06-14T14:04:16;8.27;;;7.77;;
6679;SDS011;3376;42.664;23.346;2023-06-14T14:06:43;7.67;;;7.37;;
6679;SDS011;3376;42.664;23.346;2023-06-14T14:09:12;7.53;;;7.23;;
6679;SDS011;3376;42.664;23.346;2023-06-14T14:11:38;6.83;;;6.53;;
6679;SDS011;3376;42.664;23.346;2023-06-14T14:14:07;7.07;;;6.77;;
6679;SDS011;3376;42.664;23.346;2023-06-14T14:16:35;7.97;;;7.37;;
6679;SDS011;3376;42.664;23.346;2023-06-14T14:19:02;7.67;;;7.13;;
6679;SDS011;3376;42.664;23.346;2023-06-14T14:21:29;6.80;;;6.50;;
6679;SDS011;3376;42.664;23.346;2023-06-14T14:23:55;6.70;;;6.30;;
6679;SDS011;3376;42.664;23.346;2023-06-14T14:26:23;8.40;;;7.80;;
6679;SDS011;3376;42.664;23.346;2023-06-14T14:28:50;6.50;;;6.20;;
6679;SDS011;3376;42.664;23.346;2023-06-14T14:31:17;6.00;;;5.70;;
6679;SDS011;3376;42.664;23.346;2023-06-14T14:33:44;6.87;;;6.37;;
6679;SDS011;3376;42.664;23.346;2023-06-14T14:36:12;6.43;;;6.03;;
6679;SDS011;3376;42.664;23.346;2023-06-14T14:38:38;7.63;;;7.30;;
6679;SDS011;3376;42.664;23.346;2023-06-14T14:41:05;7.87;;;7.17;;
6679;SDS011;3376;42.664;23.346;2023-06-14T14:43:33;7.57;;;7.17;;
6679;SDS011;3376;42.664;23.346;2023-06-14T14:46:00;8.63;;;8.00;;
6679;SDS011;3376;42.664;23.346;2023-06-14T14:48:27;8.27;;;7.67;;
6679;SDS011;3376;42.664;23.346;2023-06-14T14:50:54;7.63;;;7.30;;
6679;SDS011;3376;42.664;23.346;2023-06-14T14:53:20;7.30;;;6.83;;
6679;SDS011;3376;42.664;23.346;2023-06-14T14:55:47;7.67;;;7.27;;
6679;SDS011;3376;42.664;23.346;2023-06-14T14:58:15;8.80;;;8.30;;
6679;SDS011;3376;42.664;23.346;2023-06-14T15:00:44;7.17;;;6.77;;
6679;SDS011;3376;42.664;23.346;2023-06-14T15:03:11;7.87;;;7.50;;
6679;SDS011;3376;42.664;23.346;2023-06-14T15:05:37;7.67;;;7.37;;
6679;SDS011;3376;42.664;23.346;2023-06-14T15:08:04;7.80;;;7.50;;
6679;SDS011;3376;42.664;23.346;2023-06-14T15:10:35;8.87;;;8.23;;
6679;SDS011;3376;42.664;23.346;2023-06-14T15:13:02;8.60;;;8.20;;